Time;durP1;ratioP1;P1;durP2;ratioP2;P2;SDS_P1;SDS_P2;PMS_P1;PMS_P2;Temp;Humidity;BMP_temperature;BMP_pressure;BME280_temperature;BME280_humidity;BME280_pressure;Samples;Min_cycle;Max_cycle;Signal;HPM_P1;HPM_P2
2022/10/27 00:01:19;;;;;;;5.55;2.45;;;;;;;24.03;50.72;100862.91;4182374;28;20075;-70
2022/10/27 00:03:23;;;;;;;3.72;2.20;;;;;;;23.90;50.64;100835.72;4181750;28;20376;-70
2022/10/27 00:05:25;;;;;;;4.70;2.17;;;;;;;23.92;50.61;100841.03;4181810;28;20369;-70
2022/10/27 00:07:26;;;;;;;4.15;2.63;;;;;;;24.01;50.71;100859.59;4181723;28;20095;-70
2022/10/27 00:09:27;;;;;;;4.63;2.50;;;;;;;23.88;50.79;100840.78;4181943;28;20040;-70
2022/10/27 00:11:29;;;;;;;7.82;2.47;;;;;;;24.03;50.63;100860.09;4195048;28;20070;-70
2022/10/27 00:13:30;;;;;;;4.63;2.20;;;;;;;24.00;50.74;100854.28;4203036;28;20040;-70
2022/10/27 00:15:31;;;;;;;5.28;2.70;;;;;;;24.02;50.35;100863.22;4197317;28;20102;-70
2022/10/27 00:17:33;;;;;;;5.63;2.20;;;;;;;23.91;50.46;100844.94;4191260;28;20024;-70
2022/10/27 00:19:37;;;;;;;4.45;2.10;;;;;;;23.98;50.74;100856.56;4195878;28;20090;-70
2022/10/27 00:21:38;;;;;;;6.80;2.50;;;;;;;23.96;50.51;100858.81;4197223;28;20082;-69
2022/10/27 00:23:40;;;;;;;3.92;2.08;;;;;;;24.05;50.65;100868.19;4198109;28;20366;-69
2022/10/27 00:25:41;;;;;;;5.43;2.38;;;;;;;24.05;50.77;100870.97;4194114;28;20041;-69
2022/10/27 00:27:43;;;;;;;7.05;1.95;;;;;;;24.06;50.39;100869.88;4192233;28;20036;-67
2022/10/27 00:29:47;;;;;;;7.03;2.22;;;;;;;24.05;50.68;100880.22;4190650;28;20109;-68
2022/10/27 00:31:48;;;;;;;6.73;2.10;;;;;;;23.88;50.36;100845.56;4195269;28;20037;-70
2022/10/27 00:33:50;;;;;;;3.70;2.10;;;;;;;24.06;50.61;100878.25;4186645;28;20041;-70
2022/10/27 00:35:51;;;;;;;3.28;2.30;;;;;;;24.06;50.31;100881.03;4187912;28;20102;-70
2022/10/27 00:37:53;;;;;;;8.07;1.90;;;;;;;24.06;50.55;100881.03;4182170;28;20446;-71
2022/10/27 00:39:54;;;;;;;3.67;2.08;;;;;;;24.04;50.60;100880.50;4187796;28;20418;-70
2022/10/27 00:41:58;;;;;;;8.32;2.47;;;;;;;23.98;50.59;100868.56;4186366;28;20554;-70
2022/10/27 00:44:20;;;;;;;5.93;2.38;;;;;;;24.05;50.47;100874.63;4181439;28;20048;-71
2022/10/27 00:46:42;;;;;;;2.88;2.10;;;;;;;23.86;50.44;100859.00;4183848;28;20483;-68
2022/10/27 00:48:47;;;;;;;4.60;2.20;;;;;;;24.08;50.58;100878.75;4181923;28;20041;-69
2022/10/27 00:50:48;;;;;;;4.93;2.28;;;;;;;24.07;50.53;100894.72;4194957;28;20098;-69
2022/10/27 00:52:52;;;;;;;2.95;2.30;;;;;;;24.09;50.51;100886.00;4195884;28;20037;-70
2022/10/27 00:54:59;;;;;;;5.65;2.28;;;;;;;24.10;50.70;100893.28;4196789;28;20110;-69
2022/10/27 00:57:01;;;;;;;3.33;2.00;;;;;;;24.06;50.51;100886.63;4197156;28;20909;-69
2022/10/27 00:59:03;;;;;;;3.75;2.40;;;;;;;24.09;50.44;100898.00;4195884;28;20040;-67
2022/10/27 01:01:05;;;;;;;7.38;2.13;;;;;;;24.11;50.60;100899.69;4187851;28;20053;-67
2022/10/27 01:03:09;;;;;;;3.70;2.33;;;;;;;24.10;50.63;100898.88;4196295;28;20483;-69
2022/10/27 01:05:18;;;;;;;3.42;2.67;;;;;;;24.08;50.59;100901.97;4184489;28;20033;-69
2022/10/27 01:07:19;;;;;;;6.55;2.10;;;;;;;24.10;50.29;100904.47;4189043;28;20033;-69
2022/10/27 01:09:21;;;;;;;2.78;1.90;;;;;;;24.09;50.70;100909.19;4193788;28;20021;-67
2022/10/27 01:11:25;;;;;;;3.28;1.95;;;;;;;24.00;50.42;100887.81;4197781;28;20029;-67
2022/10/27 01:13:26;;;;;;;6.57;2.07;;;;;;;24.08;50.58;100901.13;4194201;28;20118;-69
2022/10/27 01:15:47;;;;;;;3.75;2.15;;;;;;;24.09;50.55;100913.97;4196933;28;20101;-69
2022/10/27 01:18:01;;;;;;;3.55;1.98;;;;;;;24.11;50.31;100920.09;4195621;28;20025;-68
2022/10/27 01:20:55;;;;;;;4.50;2.40;;;;;;;24.07;50.43;100910.66;4195525;28;20446;-69
2022/10/27 01:23:03;;;;;;;3.00;2.00;;;;;;;24.14;50.34;100911.09;4197470;28;20094;-69
2022/10/27 01:25:46;;;;;;;4.38;2.13;;;;;;;24.11;50.58;100925.69;4196609;28;20048;-71
2022/10/27 01:28:00;;;;;;;2.50;2.10;;;;;;;24.12;50.43;100924.53;4180906;28;20483;-70
2022/10/27 01:30:10;;;;;;;3.72;1.98;;;;;;;24.13;50.43;100928.16;4181132;28;20111;-70
2022/10/27 01:32:24;;;;;;;2.92;2.35;;;;;;;24.12;50.49;100924.53;4182166;28;20033;-68
2022/10/27 01:34:48;;;;;;;6.07;2.10;;;;;;;24.12;50.54;100930.13;4180936;28;20098;-70
2022/10/27 01:37:22;;;;;;;3.85;2.25;;;;;;;23.96;50.69;100910.00;4177057;28;20041;-69
2022/10/27 01:39:55;;;;;;;3.42;2.33;;;;;;;24.14;50.68;100935.41;4176962;28;20091;-68
2022/10/27 01:42:07;;;;;;;3.22;2.38;;;;;;;24.14;50.63;100939.03;4180640;28;20053;-70
2022/10/27 01:44:14;;;;;;;5.25;2.00;;;;;;;24.15;50.46;100940.72;4180622;28;20044;-69
2022/10/27 01:46:17;;;;;;;3.05;2.10;;;;;;;24.14;50.25;100936.25;4185205;28;20032;-70
2022/10/27 01:48:19;;;;;;;4.78;2.42;;;;;;;24.14;50.67;100944.63;4197414;28;20490;-71
2022/10/27 01:50:28;;;;;;;5.95;2.22;;;;;;;24.14;50.18;100941.84;4192938;28;20099;-71
2022/10/27 01:52:48;;;;;;;3.28;2.20;;;;;;;24.13;50.63;100954.16;4180831;28;20037;-70
2022/10/27 01:54:49;;;;;;;2.38;2.15;;;;;;;24.10;50.57;100938.00;4183229;28;20037;-70
2022/10/27 01:57:12;;;;;;;4.25;1.98;;;;;;;24.14;50.48;100944.63;4197311;28;20044;-70
2022/10/27 01:59:57;;;;;;;3.55;2.00;;;;;;;24.13;50.53;100953.34;4195780;28;20044;-71
2022/10/27 02:02:10;;;;;;;3.90;2.20;;;;;;;24.14;50.32;100955.81;4186685;28;20053;-71
2022/10/27 02:04:43;;;;;;;4.05;2.10;;;;;;;24.14;50.60;100955.81;4180456;28;20044;-70
2022/10/27 02:07:00;;;;;;;4.47;1.92;;;;;;;24.15;50.55;100954.72;4198613;28;20499;-71
2022/10/27 02:09:28;;;;;;;2.58;1.85;;;;;;;24.15;50.54;100963.09;4201313;28;20090;-71
2022/10/27 02:11:36;;;;;;;2.88;2.17;;;;;;;24.14;50.43;100961.41;4198529;28;20052;-71
2022/10/27 02:13:44;;;;;;;4.30;2.78;;;;;;;24.03;50.45;100949.56;4199941;28;20465;-69
2022/10/27 02:15:57;;;;;;;2.45;2.25;;;;;;;24.09;50.52;100944.72;4196347;28;20021;-69
2022/10/27 02:18:07;;;;;;;5.40;2.17;;;;;;;24.06;50.37;100945.34;4199969;28;20098;-69
2022/10/27 02:20:16;;;;;;;2.95;2.30;;;;;;;24.16;50.37;100959.16;4199336;28;20041;-69
2022/10/27 02:22:24;;;;;;;4.43;2.20;;;;;;;24.17;50.35;100972.00;4190432;28;20028;-70
2022/10/27 02:24:26;;;;;;;4.20;2.60;;;;;;;24.16;50.42;100961.97;4190383;28;20127;-69
2022/10/27 02:26:36;;;;;;;7.03;2.40;;;;;;;24.16;50.40;100966.72;4183432;28;20036;-69
2022/10/27 02:29:02;;;;;;;2.70;2.20;;;;;;;24.15;50.73;100973.44;4192891;28;20036;-69
2022/10/27 02:31:06;;;;;;;2.30;2.10;;;;;;;23.93;50.32;100920.94;4187465;28;20098;-70
2022/10/27 02:33:09;;;;;;;2.88;2.13;;;;;;;24.19;50.27;100975.34;4200128;28;20037;-69
2022/10/27 02:35:11;;;;;;;7.75;2.30;;;;;;;24.08;50.30;100957.03;4196558;28;20071;-69
2022/10/27 02:37:20;;;;;;;6.18;1.92;;;;;;;24.20;50.22;100968.59;4200451;28;20098;-69
2022/10/27 02:39:22;;;;;;;11.38;2.72;;;;;;;24.25;50.60;100968.53;4200066;28;20098;-68
2022/10/27 02:41:23;;;;;;;8.68;2.55;;;;;;;24.25;50.00;100962.94;4199601;28;20044;-70
2022/10/27 02:43:24;;;;;;;6.43;2.88;;;;;;;24.23;50.49;100969.94;4200079;28;20434;-70
2022/10/27 02:45:29;;;;;;;8.60;3.53;;;;;;;24.21;50.38;100966.63;4198968;28;20090;-71
2022/10/27 02:47:35;;;;;;;12.98;2.45;;;;;;;24.18;50.41;100973.66;4199661;28;20048;-70
2022/10/27 02:49:37;;;;;;;17.48;3.38;;;;;;;24.22;50.27;100980.31;4199917;28;20036;-73
2022/10/27 02:51:38;;;;;;;4.72;2.90;;;;;;;24.24;50.07;100980.84;4198975;28;20137;-71
2022/10/27 02:53:39;;;;;;;11.18;3.13;;;;;;;24.22;50.21;100980.31;4195637;28;20534;-69
2022/10/27 02:55:40;;;;;;;11.38;3.10;;;;;;;24.24;50.01;100980.84;4192647;28;20509;-68
2022/10/27 02:57:43;;;;;;;14.15;2.90;;;;;;;24.23;50.04;100987.56;4197766;28;20503;-67
2022/10/27 02:59:45;;;;;;;15.48;3.13;;;;;;;24.24;50.17;100983.66;4197605;28;20090;-67
2022/10/27 03:01:46;;;;;;;7.18;2.88;;;;;;;24.22;50.23;100980.31;4199673;28;20037;-67
2022/10/27 03:03:48;;;;;;;7.95;3.15;;;;;;;24.21;50.26;100981.44;4197812;28;20045;-66
2022/10/27 03:05:49;;;;;;;6.88;2.90;;;;;;;24.21;50.24;100989.00;4199397;28;20458;-66
2022/10/27 03:07:50;;;;;;;7.03;3.60;;;;;;;24.18;50.08;100984.84;4198662;28;20620;-66
2022/10/27 03:09:52;;;;;;;11.90;2.92;;;;;;;24.16;49.98;100984.31;4193513;28;20044;-66
2022/10/27 03:11:53;;;;;;;12.00;3.00;;;;;;;24.15;50.17;100990.22;4196612;28;20048;-67
2022/10/27 03:13:54;;;;;;;9.00;3.03;;;;;;;24.13;50.46;100982.13;4194646;28;20069;-67
2022/10/27 03:15:56;;;;;;;9.50;2.97;;;;;;;24.12;50.19;100980.47;4198290;28;20036;-66
2022/10/27 03:17:57;;;;;;;6.65;2.88;;;;;;;24.13;50.35;100981.28;4197659;28;20078;-66
2022/10/27 03:19:58;;;;;;;11.15;2.95;;;;;;;24.13;50.38;100987.72;4199020;28;20029;-67
2022/10/27 03:21:59;;;;;;;6.47;2.70;;;;;;;24.08;50.33;100979.41;4197942;28;20462;-67
2022/10/27 03:24:01;;;;;;;10.00;3.17;;;;;;;24.12;50.35;100988.84;4198136;28;20037;-65
2022/10/27 03:26:02;;;;;;;11.60;2.75;;;;;;;24.13;50.30;100992.47;4190374;28;20131;-66
2022/10/27 03:28:03;;;;;;;6.57;3.00;;;;;;;24.13;50.32;100996.09;4195286;28;20094;-66
2022/10/27 03:30:07;;;;;;;5.13;2.72;;;;;;;24.13;50.42;101003.66;4197247;28;20479;-66
2022/10/27 03:32:08;;;;;;;10.25;2.95;;;;;;;24.11;50.26;100994.75;4196326;28;20406;-67
2022/10/27 03:34:09;;;;;;;6.30;2.67;;;;;;;24.12;50.20;101000.03;4193490;28;20041;-67
2022/10/27 03:36:10;;;;;;;4.63;2.60;;;;;;;23.95;50.16;100975.38;4193297;28;20471;-70
2022/10/27 03:38:12;;;;;;;7.32;2.67;;;;;;;24.14;50.18;101005.31;4215282;28;20105;-67
2022/10/27 03:40:13;;;;;;;6.75;3.10;;;;;;;24.16;50.10;101009.47;4201191;28;20037;-68
2022/10/27 03:42:17;;;;;;;4.93;2.70;;;;;;;24.17;50.06;101010.31;4197523;28;20068;-68
2022/10/27 03:44:18;;;;;;;4.63;2.63;;;;;;;24.18;50.12;101007.22;4197308;28;20488;-69
2022/10/27 03:46:19;;;;;;;5.80;3.83;;;;;;;24.19;50.17;101006.09;4198165;28;20045;-69
2022/10/27 03:48:21;;;;;;;3.80;2.95;;;;;;;24.20;49.89;101004.97;4198894;28;20442;-69
2022/10/27 03:50:22;;;;;;;4.72;2.67;;;;;;;24.23;49.75;101007.13;4199508;28;20036;-70
2022/10/27 03:52:23;;;;;;;6.03;3.05;;;;;;;24.22;49.90;101008.25;4198269;28;20413;-68
2022/10/27 03:54:28;;;;;;;13.57;3.28;;;;;;;24.26;49.47;101008.50;4197572;28;20078;-69
2022/10/27 03:56:31;;;;;;;5.63;3.08;;;;;;;24.22;49.45;100999.88;4199024;28;20047;-66
2022/10/27 03:58:32;;;;;;;7.53;2.90;;;;;;;24.28;49.53;101018.25;4198559;28;20074;-69
2022/10/27 04:00:33;;;;;;;5.93;2.70;;;;;;;24.06;49.60;100976.09;4193529;28;20098;-68
2022/10/27 04:02:34;;;;;;;4.93;2.75;;;;;;;24.28;49.34;101006.22;4198532;28;20426;-69
2022/10/27 04:04:36;;;;;;;9.43;3.42;;;;;;;24.32;49.36;101013.72;4198450;28;20102;-69
2022/10/27 04:06:38;;;;;;;4.65;3.00;;;;;;;24.32;49.59;101019.28;4198489;28;20041;-68
2022/10/27 04:08:39;;;;;;;5.43;2.65;;;;;;;24.32;49.41;101022.09;4198244;28;20040;-69
2022/10/27 04:10:40;;;;;;;4.82;2.80;;;;;;;24.33;49.44;101023.78;4193415;28;20099;-68
2022/10/27 04:12:49;;;;;;;4.75;3.30;;;;;;;24.16;49.43;100995.50;4191825;28;20048;-68
2022/10/27 04:14:50;;;;;;;5.90;2.80;;;;;;;24.35;49.31;101027.09;4197083;28;20044;-67
2022/10/27 04:16:52;;;;;;;6.28;2.90;;;;;;;24.35;48.95;101024.28;4191833;28;20039;-68
2022/10/27 04:18:56;;;;;;;3.13;2.83;;;;;;;24.39;49.20;101029.31;4180870;28;20049;-68
2022/10/27 04:21:02;;;;;;;6.63;3.67;;;;;;;24.37;48.98;101038.00;4180932;28;20113;-68
2022/10/27 04:23:04;;;;;;;6.70;3.20;;;;;;;24.35;49.39;101041.06;4181976;28;20041;-68
2022/10/27 04:25:06;;;;;;;5.18;2.53;;;;;;;24.32;49.20;101044.47;4182291;28;20091;-68
2022/10/27 04:27:13;;;;;;;9.63;3.13;;;;;;;24.29;49.25;101044.25;4181907;28;20094;-68
2022/10/27 04:29:14;;;;;;;4.20;2.75;;;;;;;24.28;49.33;101046.22;4193580;28;20032;-68
2022/10/27 04:31:15;;;;;;;6.75;2.90;;;;;;;24.23;49.48;101037.88;4212321;28;20044;-68
2022/10/27 04:33:16;;;;;;;9.88;2.78;;;;;;;24.26;49.47;101045.69;4210609;28;20032;-68
2022/10/27 04:35:18;;;;;;;3.30;3.00;;;;;;;24.17;49.35;101043.88;4181492;28;20041;-68
2022/10/27 04:37:19;;;;;;;5.28;3.17;;;;;;;24.24;49.66;101056.34;4181704;28;20086;-68
2022/10/27 04:39:23;;;;;;;8.27;3.00;;;;;;;24.22;49.51;101055.81;4181737;28;20102;-68
2022/10/27 04:41:24;;;;;;;4.27;3.17;;;;;;;24.22;49.53;101055.81;4181726;28;20044;-68
2022/10/27 04:43:25;;;;;;;6.22;2.72;;;;;;;24.22;49.40;101053.00;4181694;28;20323;-68
2022/10/27 04:45:27;;;;;;;6.53;3.30;;;;;;;24.21;49.52;101056.94;4181297;28;20033;-68
2022/10/27 04:47:28;;;;;;;3.95;2.90;;;;;;;24.21;49.43;101056.94;4204942;28;20040;-68
2022/10/27 04:49:30;;;;;;;4.43;2.80;;;;;;;24.21;49.35;101061.72;4203632;28;20506;-68
2022/10/27 04:51:31;;;;;;;3.85;2.60;;;;;;;24.19;49.66;101059.22;4197288;28;20110;-68
2022/10/27 04:53:32;;;;;;;3.35;2.95;;;;;;;24.19;49.31;101062.03;4197909;28;20052;-68
2022/10/27 04:55:34;;;;;;;4.57;3.00;;;;;;;24.17;49.60;101064.25;4197624;28;20113;-68
2022/10/27 04:57:35;;;;;;;5.88;2.80;;;;;;;24.15;49.32;101069.34;4197599;28;20373;-68
2022/10/27 04:59:36;;;;;;;4.35;3.10;;;;;;;24.17;49.43;101071.81;4197469;28;20488;-69
2022/10/27 05:01:38;;;;;;;4.78;2.97;;;;;;;24.18;49.31;101070.69;4197544;28;20036;-68
2022/10/27 05:03:39;;;;;;;3.33;2.83;;;;;;;23.99;49.30;101048.28;4198089;28;20435;-68
2022/10/27 05:05:41;;;;;;;4.65;3.33;;;;;;;24.20;49.29;101079.63;4197675;28;20040;-68
2022/10/27 05:07:42;;;;;;;5.43;3.50;;;;;;;24.21;49.45;101079.31;4192067;28;20475;-67
2022/10/27 05:09:43;;;;;;;5.30;3.33;;;;;;;24.20;49.22;101088.84;4181389;28;20063;-68
2022/10/27 05:11:44;;;;;;;7.03;3.15;;;;;;;24.21;49.13;101093.28;4181255;28;20098;-68
2022/10/27 05:13:49;;;;;;;6.53;3.28;;;;;;;24.22;49.20;101089.34;4181234;28;20041;-68
2022/10/27 05:15:50;;;;;;;5.75;3.28;;;;;;;24.24;49.20;101095.50;4186259;28;20033;-69
2022/10/27 05:17:54;;;;;;;7.10;3.30;;;;;;;24.24;49.17;101101.09;4197676;28;20040;-68
2022/10/27 05:19:58;;;;;;;3.65;3.22;;;;;;;24.24;48.98;101103.88;4197659;28;20040;-68
2022/10/27 05:21:59;;;;;;;3.83;2.78;;;;;;;24.23;49.26;101104.16;4198212;28;20365;-68
2022/10/27 05:24:01;;;;;;;3.95;3.22;;;;;;;24.22;49.03;101106.13;4197461;28;20406;-68
2022/10/27 05:26:05;;;;;;;7.78;3.33;;;;;;;24.20;49.30;101104.78;4196710;28;20105;-67
2022/10/27 05:28:08;;;;;;;3.63;3.33;;;;;;;24.20;49.30;101115.97;4197653;28;20361;-68
2022/10/27 05:30:11;;;;;;;5.32;3.17;;;;;;;24.22;48.92;101127.69;4197751;28;20322;-68
2022/10/27 05:32:13;;;;;;;3.85;3.33;;;;;;;24.13;49.05;101121.91;4197232;28;20490;-68
2022/10/27 05:34:17;;;;;;;3.40;2.83;;;;;;;24.23;48.96;101127.38;4197674;28;20048;-69
2022/10/27 05:36:18;;;;;;;3.60;2.63;;;;;;;24.25;48.81;101130.72;4197360;28;20045;-68
2022/10/27 05:38:19;;;;;;;3.13;2.78;;;;;;;24.26;48.71;101137.97;4198075;28;20044;-68
2022/10/27 05:40:21;;;;;;;4.80;3.10;;;;;;;24.27;48.80;101153.59;4196976;28;20098;-69
2022/10/27 05:42:23;;;;;;;5.32;3.08;;;;;;;24.15;48.64;101125.25;4186540;28;20104;-68
2022/10/27 05:44:24;;;;;;;5.53;2.95;;;;;;;24.26;48.72;101151.13;4181010;28;20037;-68
2022/10/27 05:46:25;;;;;;;4.65;2.92;;;;;;;24.27;48.67;101150.81;4187942;28;20095;-68
2022/10/27 05:48:29;;;;;;;3.28;2.55;;;;;;;24.25;48.90;101164.28;4197637;28;20024;-68
2022/10/27 05:50:34;;;;;;;3.40;3.10;;;;;;;24.02;48.54;101123.19;4197424;28;20041;-68
2022/10/27 05:52:35;;;;;;;3.35;3.03;;;;;;;24.18;48.93;101147.00;4197416;28;20037;-68
2022/10/27 05:54:36;;;;;;;3.13;2.72;;;;;;;24.26;48.69;101154.75;4197824;28;20086;-66
2022/10/27 05:56:40;;;;;;;3.20;2.88;;;;;;;24.03;48.76;101127.63;4196496;28;20090;-68
2022/10/27 05:58:42;;;;;;;3.15;2.80;;;;;;;24.25;48.73;101161.47;4191151;28;20109;-66
2022/10/27 06:00:43;;;;;;;3.97;3.05;;;;;;;24.22;48.63;101162.06;4191490;28;20045;-69
2022/10/27 06:02:47;;;;;;;4.57;3.25;;;;;;;24.23;48.69;101160.09;4197057;28;20097;-66
2022/10/27 06:04:48;;;;;;;6.22;3.10;;;;;;;24.13;48.79;101149.03;4193179;28;20369;-69
2022/10/27 06:06:53;;;;;;;3.53;2.85;;;;;;;24.16;48.60;101154.03;4189045;28;20033;-69
2022/10/27 06:09:00;;;;;;;3.63;3.10;;;;;;;24.20;48.76;101169.94;4193935;28;20321;-70
2022/10/27 06:11:01;;;;;;;3.42;2.92;;;;;;;24.20;48.48;101178.31;4199213;28;20090;-69
2022/10/27 06:13:05;;;;;;;5.53;3.58;;;;;;;24.21;48.79;101179.16;4192261;28;20094;-66
2022/10/27 06:15:06;;;;;;;3.58;3.13;;;;;;;24.21;48.71;101185.56;4196547;28;20029;-67
2022/10/27 06:17:10;;;;;;;4.20;2.90;;;;;;;24.22;48.69;101178.00;4197298;28;20090;-66
2022/10/27 06:19:14;;;;;;;4.07;3.00;;;;;;;24.22;48.64;101181.63;4180237;28;20049;-68
2022/10/27 06:21:18;;;;;;;4.18;2.72;;;;;;;24.12;48.45;101178.97;4180391;28;20056;-68
2022/10/27 06:23:22;;;;;;;3.65;2.97;;;;;;;24.04;48.53;101162.84;4197223;28;20314;-68
2022/10/27 06:25:23;;;;;;;3.63;2.80;;;;;;;24.21;48.30;101196.75;4196707;28;20162;-67
2022/10/27 06:27:24;;;;;;;5.53;2.78;;;;;;;24.20;48.79;101192.28;4197285;28;20033;-69
2022/10/27 06:29:26;;;;;;;2.78;2.55;;;;;;;24.17;48.63;101206.88;4197244;28;20557;-69
2022/10/27 06:31:30;;;;;;;4.00;3.22;;;;;;;24.16;48.74;101205.19;4196866;28;20045;-69
2022/10/27 06:33:31;;;;;;;4.38;2.80;;;;;;;24.15;48.42;101195.16;4185461;28;20044;-69
2022/10/27 06:35:33;;;;;;;3.20;2.88;;;;;;;24.09;48.49;101194.34;4197024;28;20041;-69
2022/10/27 06:37:42;;;;;;;2.72;2.38;;;;;;;24.21;48.69;101216.31;4196899;28;20032;-68
2022/10/27 06:39:43;;;;;;;3.08;2.58;;;;;;;24.05;48.38;101198.91;4197048;28;20114;-69
2022/10/27 06:41:45;;;;;;;3.40;3.10;;;;;;;24.22;48.59;101209.59;4197110;28;20078;-69
2022/10/27 06:43:46;;;;;;;4.55;2.83;;;;;;;24.02;48.60;101181.88;4196685;28;20162;-69
2022/10/27 06:45:48;;;;;;;2.80;2.60;;;;;;;24.11;48.49;101202.47;4197868;28;20098;-69
2022/10/27 06:48:00;;;;;;;4.03;2.63;;;;;;;24.21;48.37;101224.72;4213093;28;20504;-69
2022/10/27 06:50:02;;;;;;;4.95;3.00;;;;;;;24.08;48.49;101197.47;4186806;28;20098;-68
2022/10/27 06:52:06;;;;;;;3.88;2.80;;;;;;;24.10;48.27;101200.81;4197086;28;20036;-68
2022/10/27 06:54:07;;;;;;;3.30;3.00;;;;;;;24.25;48.49;101230.56;4199636;28;20494;-69
2022/10/27 06:56:08;;;;;;;4.07;3.00;;;;;;;24.25;48.25;101225.78;4199217;28;20273;-68
2022/10/27 06:58:10;;;;;;;3.00;2.53;;;;;;;24.24;48.33;101231.69;4197410;28;20121;-69
2022/10/27 07:00:12;;;;;;;3.50;2.70;;;;;;;24.14;48.21;101224.22;4194697;28;20079;-67
2022/10/27 07:02:16;;;;;;;3.60;2.80;;;;;;;24.21;48.49;101235.91;4191014;28;20438;-67
2022/10/27 07:04:20;;;;;;;2.90;2.60;;;;;;;24.22;48.38;101243.16;4187182;28;20045;-67
2022/10/27 07:06:22;;;;;;;2.97;2.67;;;;;;;24.22;48.34;101254.34;4186320;28;20037;-70
2022/10/27 07:08:26;;;;;;;3.15;2.85;;;;;;;24.22;48.25;101243.16;4195104;28;20098;-68
2022/10/27 07:10:27;;;;;;;3.70;2.77;;;;;;;24.22;48.18;101248.75;4198607;28;20048;-68
2022/10/27 07:12:28;;;;;;;3.17;2.45;;;;;;;24.22;48.49;101256.31;4188362;28;20057;-69
2022/10/27 07:14:33;;;;;;;5.95;2.70;;;;;;;24.22;48.25;101259.09;4192136;28;20562;-68
2022/10/27 07:16:34;;;;;;;4.00;2.75;;;;;;;24.21;48.16;101257.44;4186228;28;20044;-68
2022/10/27 07:18:37;;;;;;;5.07;2.50;;;;;;;24.20;48.31;101259.41;4198327;28;20086;-68
2022/10/27 07:20:44;;;;;;;2.30;2.10;;;;;;;24.01;48.15;101233.34;4187817;28;20122;-67
2022/10/27 07:22:45;;;;;;;3.28;2.45;;;;;;;24.20;48.17;101262.19;4175503;28;20049;-68
2022/10/27 07:24:46;;;;;;;3.13;2.40;;;;;;;24.21;48.18;101275.06;4190577;28;20105;-67
2022/10/27 07:26:47;;;;;;;3.92;2.70;;;;;;;24.21;48.31;101279.81;4199000;28;20040;-69
2022/10/27 07:28:49;;;;;;;3.00;2.50;;;;;;;24.20;48.34;101278.97;4198473;28;20025;-67
2022/10/27 07:30:54;;;;;;;2.92;2.63;;;;;;;24.19;48.31;101274.53;4193689;28;20098;-69
2022/10/27 07:32:57;;;;;;;2.80;2.53;;;;;;;24.19;48.34;101288.50;4199618;28;20044;-69
2022/10/27 07:34:58;;;;;;;2.85;2.42;;;;;;;24.16;48.07;101274.28;4198046;28;20040;-69
2022/10/27 07:37:02;;;;;;;2.30;2.10;;;;;;;24.18;47.99;101285.97;4198549;28;20054;-67
2022/10/27 07:39:03;;;;;;;3.05;2.85;;;;;;;24.11;48.09;101279.91;4199529;28;20071;-67
2022/10/27 07:41:07;;;;;;;3.42;2.55;;;;;;;24.16;48.01;101283.50;4193467;28;20090;-67
2022/10/27 07:43:09;;;;;;;2.80;2.30;;;;;;;24.15;48.14;101287.44;4197857;28;20036;-67
2022/10/27 07:45:12;;;;;;;3.00;2.70;;;;;;;23.95;48.07;101262.44;4197443;28;20048;-67
2022/10/27 07:47:16;;;;;;;3.28;2.40;;;;;;;24.14;48.02;101296.91;4199288;28;20487;-69
2022/10/27 07:49:20;;;;;;;2.65;2.42;;;;;;;24.12;48.18;101288.00;4197359;28;20430;-67
2022/10/27 07:51:22;;;;;;;2.58;2.33;;;;;;;24.02;47.97;101276.94;4197614;28;20086;-66
2022/10/27 07:53:23;;;;;;;3.50;2.50;;;;;;;24.13;48.26;101305.59;4200684;28;20037;-67
2022/10/27 07:55:29;;;;;;;2.42;2.22;;;;;;;24.12;48.26;101306.75;4197525;28;20093;-67
2022/10/27 07:57:30;;;;;;;3.85;2.50;;;;;;;24.11;48.27;101317.09;4198548;28;20172;-69
2022/10/27 07:59:34;;;;;;;2.53;2.33;;;;;;;24.10;48.05;101315.44;4198322;28;20048;-69
2022/10/27 08:01:35;;;;;;;2.30;2.10;;;;;;;24.08;47.95;101317.69;4197333;28;20041;-67
2022/10/27 08:03:39;;;;;;;2.70;2.50;;;;;;;24.10;48.05;101323.81;4192875;28;20032;-67
2022/10/27 08:05:41;;;;;;;2.10;1.90;;;;;;;24.09;47.95;101322.13;4197763;28;20052;-70
2022/10/27 08:07:42;;;;;;;2.47;2.22;;;;;;;24.08;48.08;101326.06;4198747;28;20427;-68
2022/10/27 08:09:43;;;;;;;2.63;2.40;;;;;;;23.97;48.12;101314.16;4202862;28;20406;-68
2022/10/27 08:11:44;;;;;;;3.90;2.50;;;;;;;24.09;47.96;101338.91;4199075;28;20036;-68
2022/10/27 08:13:49;;;;;;;2.53;2.33;;;;;;;24.07;48.27;101336.41;4198606;28;20467;-67
2022/10/27 08:15:50;;;;;;;2.55;2.35;;;;;;;24.04;48.07;101336.16;4198390;28;20032;-66
2022/10/27 08:17:58;;;;;;;3.03;2.83;;;;;;;24.07;47.96;101341.19;4197962;28;20032;-67
2022/10/27 08:19:59;;;;;;;2.50;2.30;;;;;;;24.07;48.11;101346.78;4197201;28;20040;-67
2022/10/27 08:22:01;;;;;;;2.95;2.65;;;;;;;23.95;48.15;101323.94;4198500;28;20044;-67
2022/10/27 08:24:02;;;;;;;2.90;2.60;;;;;;;24.07;48.03;101341.19;4198292;28;20093;-67
2022/10/27 08:26:03;;;;;;;2.58;2.38;;;;;;;24.03;47.79;101340.09;4198226;28;20485;-67
2022/10/27 08:28:05;;;;;;;2.42;2.13;;;;;;;24.06;48.08;101356.28;4197721;28;20033;-67
2022/10/27 08:30:07;;;;;;;2.40;2.20;;;;;;;24.03;48.13;101356.88;4198169;28;20066;-67
2022/10/27 08:32:09;;;;;;;2.38;2.17;;;;;;;24.02;47.92;101349.59;4198048;28;20036;-68
2022/10/27 08:34:11;;;;;;;3.03;2.20;;;;;;;24.03;48.08;101356.88;4198010;28;20032;-67
2022/10/27 08:36:12;;;;;;;3.05;2.47;;;;;;;24.04;48.16;101359.34;4197379;28;20118;-67
2022/10/27 08:38:15;;;;;;;2.22;2.03;;;;;;;23.98;47.97;101348.53;4197539;28;20549;-68
2022/10/27 08:40:16;;;;;;;2.40;2.20;;;;;;;23.79;47.99;101318.47;4197198;28;20075;-68
2022/10/27 08:42:35;;;;;;;2.70;2.50;;;;;;;24.03;47.81;101365.25;4198183;28;20028;-68
2022/10/27 08:44:52;;;;;;;2.40;2.20;;;;;;;24.02;47.81;101366.38;4196410;28;20041;-68
2022/10/27 08:47:00;;;;;;;2.58;2.17;;;;;;;24.02;47.99;101364.41;4197141;28;20044;-68
2022/10/27 08:49:06;;;;;;;2.22;2.03;;;;;;;24.03;48.06;101368.03;4195989;28;20044;-68
2022/10/27 08:51:15;;;;;;;3.25;2.33;;;;;;;24.03;47.83;101368.88;4206315;28;20455;-67
2022/10/27 08:53:25;;;;;;;2.30;2.10;;;;;;;24.03;47.66;101379.22;4197867;28;20041;-68
2022/10/27 08:55:37;;;;;;;2.50;2.30;;;;;;;24.03;48.01;101384.81;4197395;28;20040;-67
2022/10/27 08:57:52;;;;;;;2.47;2.28;;;;;;;23.89;47.86;101367.88;4198005;28;20125;-67
2022/10/27 08:59:55;;;;;;;2.42;2.22;;;;;;;24.00;47.66;101385.38;4197457;28;20045;-67
2022/10/27 09:02:17;;;;;;;2.20;2.00;;;;;;;24.00;47.93;101397.41;4197398;28;20475;-67
2022/10/27 09:05:00;;;;;;;1.85;1.75;;;;;;;23.99;47.66;101398.53;4197940;28;20049;-67
2022/10/27 09:07:28;;;;;;;2.53;2.33;;;;;;;23.81;47.79;101363.72;4179960;28;20056;-66
2022/10/27 09:09:53;;;;;;;3.63;2.17;;;;;;;23.10;47.89;101249.66;4196219;28;20028;-69
2022/10/27 09:12:14;;;;;;;2.30;2.10;;;;;;;24.01;47.69;101393.50;4197482;28;20044;-69
2022/10/27 09:14:52;;;;;;;2.20;1.98;;;;;;;23.99;47.54;101403.28;4197384;28;20480;-69
2022/10/27 09:17:02;;;;;;;2.40;2.20;;;;;;;24.01;47.43;101409.44;4190638;28;20036;-68
2022/10/27 09:19:11;;;;;;;2.30;2.10;;;;;;;24.01;47.87;101409.44;4189004;28;20090;-68
2022/10/27 09:21:19;;;;;;;4.00;2.10;;;;;;;23.95;47.54;101403.03;4192381;28;20652;-68
2022/10/27 09:23:27;;;;;;;2.45;2.17;;;;;;;23.97;47.66;101408.34;4196998;28;20070;-68
2022/10/27 09:25:33;;;;;;;2.53;2.33;;;;;;;23.97;47.60;101408.34;4197435;28;20520;-67
2022/10/27 09:27:40;;;;;;;1.85;1.75;;;;;;;23.97;47.43;101413.94;4197848;28;20090;-68
2022/10/27 09:29:42;;;;;;;3.03;1.95;;;;;;;23.97;47.58;101411.97;4196429;28;20075;-68
2022/10/27 09:31:48;;;;;;;1.67;1.52;;;;;;;23.88;47.66;101401.72;4197072;28;20456;-67
2022/10/27 09:33:59;;;;;;;2.20;2.00;;;;;;;23.95;47.52;101418.97;4196693;28;20098;-68
2022/10/27 09:36:21;;;;;;;2.20;2.00;;;;;;;23.93;47.73;101413.69;4196257;28;20037;-68
2022/10/27 09:38:26;;;;;;;2.20;2.03;;;;;;;23.96;47.51;101417.84;4197626;28;20070;-67
2022/10/27 09:40:32;;;;;;;2.30;2.10;;;;;;;23.96;47.62;101429.03;4190782;28;20054;-67
2022/10/27 09:42:33;;;;;;;2.30;2.10;;;;;;;23.89;47.63;101423.78;4186196;28;20098;-68